Warning: Javascript must be enabled to use all the features on this page!


Page Loading - Please Wait...

* We've detected you're using a mobile device. Find our Next Generation Station Page here.
Click to hideNews Bulletins

Peak Streamflow for the Nation

USGS 07184000 LIGHTNING C NR MCCUNE, KS

Cherokee County, Kansas
Hydrologic Unit Code 11070205
Latitude  37°16'52", Longitude  95°01'57" NAD27
Drainage area 197  square miles
Contributing drainage area 197  square miles
Gage datum 818.10 feet above NGVD29
Output formats
Table
Graph
Tab-separated file
peakfq (watstore) format
Reselect output format
Water
Year
Date Gage
Height
(feet)
Stream-
flow
(cfs)
1938 1938 16.24Bm 5,800Bm
1939 1939-05-22 13.16 2,110
1940 1940-04-18 12.50 1,900
1941 1941-04-16 16.80 10,300
1942 1941-10-05 17.55 18,700
1943 1943-05-19 17.81 23,000
1944 1944-04-11 16.63 8,550
1945 1945-09-25 16.76 10,200
1946 1946-01-06 16.19 5,820
1960 1960-04-15 15.22 2,940
1961 1961-05-06 17.46 19,000
1962 1962-09-23 15.64 3,420
1963 1963-06-16 12.43 2,030
1964 1964-06-14 17.07 13,800
1965 1965-04-03 16.55 7,700
1966 1966-05-12 11.53 1,740
1967 1967-06-12 15.68 3,350
1968 1968-06-02 15.83 3,550
1969 1969-03-25 15.84 3,560
1970 1970-05-01 16.39 6,220
1971 1971-01-04 13.31 2,240
1972 1971-12-15 16.27 5,320
1973 1973-04-01 16.16 4,660
1974 1974-03-11 17.65 21,600
1975 1974-11-04 16.79 11,000
1976 1976-07-04 16.31 7,170
1977 1977-06-22 16.63 9,570
1978 1977-11-01 15.10 3,040
1979 1979-05-21 16.35 7,250
1980 1979-11-21 17.38 17,500
1981 1981-07-01 11.52 1,920
1982 1982-03-15 15.43 3,240
1983 1983-04-23 16.77 10,500
1984 1983-10-22 15.91 4,150
1985 1985-02-23 17.09 14,600
1986 1985-11-16 16.25 6,210
1987 1986-10-01 18.48 28,500
1988 1987-12-21 15.99 4,530
1989 1989-06-12 15.99 4,530
1990 1990-03-15 16.47 8,240
1991 1991-01-16 11.72 2,050
1992 1992-07-12 16.76 10,800
1993 1993-09-25 19.79 67,500
1994 1994-04-11 19.08 39,900
1995 1995-06-10 18.70 32,300
1996 1996-09-27 15.22 3,490
1997 1997-02-22 16.40 7,900
1998 1997-12-25 13.40 2,950
1999 1998-10-05 18.24 24,300
2000 2000-05-10 13.93 3,140
2001 2001-01-30 15.69 4,280
2002 2002-05-09 17.14 11,900
2003 2003-09-02 14.15 3,160
2004 2004-03-05 17.00 20,800
2005 2005-01-06 16.43 7,280
2006 2006-05-10 7.56 1,090
2007 2007-07-02 17.76 19,700
2008 2008-05-08 17.17 13,300
2009 2009-09-22 16.90 11,100
2010 2009-10-09 18.11 24,900
2011 2011-03-20 12.98 2,690
2012 2012-05-01 16.79 10,600
2013 2013-05-31 18.22 23,000
2014 2014-06-06 12.64 3,040
2015 2015-05-25 16.38 7,110
2016 2015-12-27 17.22 11,600
2017 2017-04-30 18.00 22,300
2018 2018-08-30 13.89 3,730
2019 2019-05-21 17.80 19,600
2020 2020-02-25 16.71 9,420
2021 2021-07-17 15.77 5,050
2022 2022-05-05 17.36 14,700
2023 2023-08-14 8.68 1,690
?
  Peak Gage-Height Qualification Codes.
?
  Peak Streamflow Qualification Codes.